sensor_id;sensor_type;location;lat;lon;timestamp;temperature;humidity
15044;DHT22;7619;48.562;8.910;2022-10-26T00:01:30;10.50;99.90
15044;DHT22;7619;48.562;8.910;2022-10-26T00:03:59;10.40;99.90
15044;DHT22;7619;48.562;8.910;2022-10-26T00:06:28;10.50;99.90
15044;DHT22;7619;48.562;8.910;2022-10-26T00:08:57;10.40;99.90
15044;DHT22;7619;48.562;8.910;2022-10-26T00:11:26;10.40;99.90
15044;DHT22;7619;48.562;8.910;2022-10-26T00:13:54;10.40;99.90
15044;DHT22;7619;48.562;8.910;2022-10-26T00:16:25;10.50;99.90
15044;DHT22;7619;48.562;8.910;2022-10-26T00:18:54;10.40;99.90
15044;DHT22;7619;48.562;8.910;2022-10-26T00:21:23;10.40;99.90
15044;DHT22;7619;48.562;8.910;2022-10-26T00:23:52;10.40;99.90
15044;DHT22;7619;48.562;8.910;2022-10-26T00:26:21;10.40;99.90
15044;DHT22;7619;48.562;8.910;2022-10-26T00:28:52;10.50;99.90
15044;DHT22;7619;48.562;8.910;2022-10-26T00:31:21;10.50;99.90
15044;DHT22;7619;48.562;8.910;2022-10-26T00:33:52;10.50;99.90
15044;DHT22;7619;48.562;8.910;2022-10-26T00:36:22;10.50;99.90
15044;DHT22;7619;48.562;8.910;2022-10-26T00:38:52;10.50;99.90
15044;DHT22;7619;48.562;8.910;2022-10-26T00:41:23;10.50;99.90
15044;DHT22;7619;48.562;8.910;2022-10-26T00:43:52;10.50;99.90
15044;DHT22;7619;48.562;8.910;2022-10-26T00:46:23;10.50;99.90
15044;DHT22;7619;48.562;8.910;2022-10-26T00:48:55;10.50;99.90
15044;DHT22;7619;48.562;8.910;2022-10-26T00:51:28;10.50;99.90
15044;DHT22;7619;48.562;8.910;2022-10-26T00:54:01;10.60;99.90
15044;DHT22;7619;48.562;8.910;2022-10-26T00:56:31;10.60;99.90
15044;DHT22;7619;48.562;8.910;2022-10-26T00:59:04;10.70;99.90
15044;DHT22;7619;48.562;8.910;2022-10-26T01:01:35;10.80;99.90
15044;DHT22;7619;48.562;8.910;2022-10-26T01:04:05;10.90;99.90
15044;DHT22;7619;48.562;8.910;2022-10-26T01:06:34;10.70;99.90
15044;DHT22;7619;48.562;8.910;2022-10-26T01:09:04;10.60;99.90
15044;DHT22;7619;48.562;8.910;2022-10-26T01:11:33;10.60;99.90
15044;DHT22;7619;48.562;8.910;2022-10-26T01:14:05;10.60;99.90
15044;DHT22;7619;48.562;8.910;2022-10-26T01:16:50;10.60;99.90
15044;DHT22;7619;48.562;8.910;2022-10-26T01:19:36;10.60;99.90
15044;DHT22;7619;48.562;8.910;2022-10-26T01:22:06;10.60;99.90
15044;DHT22;7619;48.562;8.910;2022-10-26T01:27:34;10.70;99.90
15044;DHT22;7619;48.562;8.910;2022-10-26T01:30:26;10.80;99.90
15044;DHT22;7619;48.562;8.910;2022-10-26T01:36:10;10.80;99.90
15044;DHT22;7619;48.562;8.910;2022-10-26T01:38:46;10.80;99.90
15044;DHT22;7619;48.562;8.910;2022-10-26T01:41:19;10.70;99.90
15044;DHT22;7619;48.562;8.910;2022-10-26T01:43:52;10.70;99.90
15044;DHT22;7619;48.562;8.910;2022-10-26T01:46:23;10.70;99.90
15044;DHT22;7619;48.562;8.910;2022-10-26T01:48:56;10.70;99.90
15044;DHT22;7619;48.562;8.910;2022-10-26T01:51:26;10.70;99.90
15044;DHT22;7619;48.562;8.910;2022-10-26T01:53:57;10.60;99.90
15044;DHT22;7619;48.562;8.910;2022-10-26T01:56:28;10.50;99.90
15044;DHT22;7619;48.562;8.910;2022-10-26T01:59:12;10.50;99.90
15044;DHT22;7619;48.562;8.910;2022-10-26T02:01:50;10.40;99.90
15044;DHT22;7619;48.562;8.910;2022-10-26T02:04:25;10.30;99.90
15044;DHT22;7619;48.562;8.910;2022-10-26T02:06:59;10.30;99.90
15044;DHT22;7619;48.562;8.910;2022-10-26T02:09:32;10.30;99.90
15044;DHT22;7619;48.562;8.910;2022-10-26T02:12:04;10.30;99.90
15044;DHT22;7619;48.562;8.910;2022-10-26T02:14:35;10.30;99.90
15044;DHT22;7619;48.562;8.910;2022-10-26T02:17:07;10.30;99.90
15044;DHT22;7619;48.562;8.910;2022-10-26T02:19:41;10.30;99.90
15044;DHT22;7619;48.562;8.910;2022-10-26T02:24:52;10.30;99.90
15044;DHT22;7619;48.562;8.910;2022-10-26T02:27:23;10.20;99.90
15044;DHT22;7619;48.562;8.910;2022-10-26T02:29:54;10.10;99.90
15044;DHT22;7619;48.562;8.910;2022-10-26T02:32:26;10.10;99.90
15044;DHT22;7619;48.562;8.910;2022-10-26T02:34:57;10.10;99.90
15044;DHT22;7619;48.562;8.910;2022-10-26T02:37:28;10.10;99.90
15044;DHT22;7619;48.562;8.910;2022-10-26T02:39:59;10.10;99.90
15044;DHT22;7619;48.562;8.910;2022-10-26T02:42:30;10.10;99.90
15044;DHT22;7619;48.562;8.910;2022-10-26T02:45:03;10.10;99.90
15044;DHT22;7619;48.562;8.910;2022-10-26T02:47:32;10.10;99.90
15044;DHT22;7619;48.562;8.910;2022-10-26T02:50:02;10.10;99.90
15044;DHT22;7619;48.562;8.910;2022-10-26T02:52:34;10.10;99.90
15044;DHT22;7619;48.562;8.910;2022-10-26T02:57:44;10.10;99.90
15044;DHT22;7619;48.562;8.910;2022-10-26T03:00:16;10.20;99.90
15044;DHT22;7619;48.562;8.910;2022-10-26T03:05:28;10.10;99.90
15044;DHT22;7619;48.562;8.910;2022-10-26T03:07:59;10.20;99.90
15044;DHT22;7619;48.562;8.910;2022-10-26T03:10:28;10.30;99.90
15044;DHT22;7619;48.562;8.910;2022-10-26T03:12:56;10.30;99.90
15044;DHT22;7619;48.562;8.910;2022-10-26T03:15:25;10.40;99.90
15044;DHT22;7619;48.562;8.910;2022-10-26T03:17:54;10.30;99.90
15044;DHT22;7619;48.562;8.910;2022-10-26T03:20:23;10.20;99.90
15044;DHT22;7619;48.562;8.910;2022-10-26T03:22:51;10.20;99.90
15044;DHT22;7619;48.562;8.910;2022-10-26T03:25:20;10.20;99.90
15044;DHT22;7619;48.562;8.910;2022-10-26T03:27:57;10.30;99.90
15044;DHT22;7619;48.562;8.910;2022-10-26T03:30:27;10.40;99.90
15044;DHT22;7619;48.562;8.910;2022-10-26T03:32:56;10.50;99.90
15044;DHT22;7619;48.562;8.910;2022-10-26T03:35:25;10.70;99.90
15044;DHT22;7619;48.562;8.910;2022-10-26T03:37:53;10.80;99.90
15044;DHT22;7619;48.562;8.910;2022-10-26T03:40:23;10.90;99.90
15044;DHT22;7619;48.562;8.910;2022-10-26T03:42:51;11.00;99.90
15044;DHT22;7619;48.562;8.910;2022-10-26T03:45:20;11.00;99.90
15044;DHT22;7619;48.562;8.910;2022-10-26T03:47:49;11.00;99.90
15044;DHT22;7619;48.562;8.910;2022-10-26T03:50:20;11.10;99.90
15044;DHT22;7619;48.562;8.910;2022-10-26T03:52:49;11.20;99.90
15044;DHT22;7619;48.562;8.910;2022-10-26T03:55:18;11.20;99.90
15044;DHT22;7619;48.562;8.910;2022-10-26T03:57:47;11.30;99.90
15044;DHT22;7619;48.562;8.910;2022-10-26T04:00:17;11.40;99.90
15044;DHT22;7619;48.562;8.910;2022-10-26T04:02:53;11.40;99.90
15044;DHT22;7619;48.562;8.910;2022-10-26T04:05:22;11.50;99.90
15044;DHT22;7619;48.562;8.910;2022-10-26T04:07:54;11.50;99.90
15044;DHT22;7619;48.562;8.910;2022-10-26T04:10:25;11.50;99.90
15044;DHT22;7619;48.562;8.910;2022-10-26T04:12:54;11.50;99.90
15044;DHT22;7619;48.562;8.910;2022-10-26T04:15:23;11.40;99.90
15044;DHT22;7619;48.562;8.910;2022-10-26T04:17:56;11.40;99.90
15044;DHT22;7619;48.562;8.910;2022-10-26T04:20:25;11.40;99.90
15044;DHT22;7619;48.562;8.910;2022-10-26T04:22:59;11.50;99.90
15044;DHT22;7619;48.562;8.910;2022-10-26T04:25:29;11.40;99.90
15044;DHT22;7619;48.562;8.910;2022-10-26T04:27:57;11.30;99.90
15044;DHT22;7619;48.562;8.910;2022-10-26T04:30:26;11.20;99.90
15044;DHT22;7619;48.562;8.910;2022-10-26T04:32:55;11.20;99.90
15044;DHT22;7619;48.562;8.910;2022-10-26T04:35:24;11.10;99.90
15044;DHT22;7619;48.562;8.910;2022-10-26T04:37:57;11.10;99.90
15044;DHT22;7619;48.562;8.910;2022-10-26T04:40:27;11.10;99.90
15044;DHT22;7619;48.562;8.910;2022-10-26T04:45:33;11.00;99.90
15044;DHT22;7619;48.562;8.910;2022-10-26T04:48:04;11.00;99.90
15044;DHT22;7619;48.562;8.910;2022-10-26T04:50:34;10.90;99.90
15044;DHT22;7619;48.562;8.910;2022-10-26T04:53:03;10.90;99.90
15044;DHT22;7619;48.562;8.910;2022-10-26T04:55:32;10.90;99.90
15044;DHT22;7619;48.562;8.910;2022-10-26T04:58:01;10.90;99.90
15044;DHT22;7619;48.562;8.910;2022-10-26T05:00:30;10.80;99.90
15044;DHT22;7619;48.562;8.910;2022-10-26T05:03:00;10.80;99.90
15044;DHT22;7619;48.562;8.910;2022-10-26T05:05:31;10.80;99.90
15044;DHT22;7619;48.562;8.910;2022-10-26T05:07:59;10.80;99.90
15044;DHT22;7619;48.562;8.910;2022-10-26T05:10:28;10.80;99.90
15044;DHT22;7619;48.562;8.910;2022-10-26T05:12:58;10.80;99.90
15044;DHT22;7619;48.562;8.910;2022-10-26T05:15:28;10.90;99.90
15044;DHT22;7619;48.562;8.910;2022-10-26T05:17:59;10.90;99.90
15044;DHT22;7619;48.562;8.910;2022-10-26T05:20:30;10.90;99.90
15044;DHT22;7619;48.562;8.910;2022-10-26T05:23:01;11.10;99.90
15044;DHT22;7619;48.562;8.910;2022-10-26T05:25:33;11.20;99.90
15044;DHT22;7619;48.562;8.910;2022-10-26T05:28:04;11.20;99.90
15044;DHT22;7619;48.562;8.910;2022-10-26T05:30:34;11.20;99.90
15044;DHT22;7619;48.562;8.910;2022-10-26T05:33:03;11.30;99.90
15044;DHT22;7619;48.562;8.910;2022-10-26T05:35:32;11.30;99.90
15044;DHT22;7619;48.562;8.910;2022-10-26T05:38:06;11.30;99.90
15044;DHT22;7619;48.562;8.910;2022-10-26T05:40:35;11.40;99.90
15044;DHT22;7619;48.562;8.910;2022-10-26T05:43:04;11.40;99.90
15044;DHT22;7619;48.562;8.910;2022-10-26T05:45:33;11.50;99.90
15044;DHT22;7619;48.562;8.910;2022-10-26T05:48:02;11.40;99.90
15044;DHT22;7619;48.562;8.910;2022-10-26T05:50:31;11.40;99.90
15044;DHT22;7619;48.562;8.910;2022-10-26T05:53:00;11.40;99.90
15044;DHT22;7619;48.562;8.910;2022-10-26T05:55:30;11.50;99.90
15044;DHT22;7619;48.562;8.910;2022-10-26T05:58:00;11.50;99.90
15044;DHT22;7619;48.562;8.910;2022-10-26T06:00:30;11.30;99.90
15044;DHT22;7619;48.562;8.910;2022-10-26T06:03:10;11.20;99.90
15044;DHT22;7619;48.562;8.910;2022-10-26T06:05:44;11.10;99.90
15044;DHT22;7619;48.562;8.910;2022-10-26T06:08:12;11.10;99.90
15044;DHT22;7619;48.562;8.910;2022-10-26T06:10:42;11.20;99.90
15044;DHT22;7619;48.562;8.910;2022-10-26T06:13:11;11.30;99.90
15044;DHT22;7619;48.562;8.910;2022-10-26T06:15:46;11.40;99.90
15044;DHT22;7619;48.562;8.910;2022-10-26T06:18:18;11.60;99.90
15044;DHT22;7619;48.562;8.910;2022-10-26T06:20:50;11.70;99.90
15044;DHT22;7619;48.562;8.910;2022-10-26T06:23:40;11.70;99.90
15044;DHT22;7619;48.562;8.910;2022-10-26T06:26:14;11.70;99.90
15044;DHT22;7619;48.562;8.910;2022-10-26T06:28:49;11.80;99.90
15044;DHT22;7619;48.562;8.910;2022-10-26T06:31:18;11.80;99.90
15044;DHT22;7619;48.562;8.910;2022-10-26T06:33:47;11.80;99.90
15044;DHT22;7619;48.562;8.910;2022-10-26T06:36:21;12.00;99.90
15044;DHT22;7619;48.562;8.910;2022-10-26T06:38:53;12.10;99.90
15044;DHT22;7619;48.562;8.910;2022-10-26T06:41:23;12.20;99.90
15044;DHT22;7619;48.562;8.910;2022-10-26T06:43:53;12.20;99.90
15044;DHT22;7619;48.562;8.910;2022-10-26T06:46:29;12.20;99.90
15044;DHT22;7619;48.562;8.910;2022-10-26T06:49:03;12.20;99.90
15044;DHT22;7619;48.562;8.910;2022-10-26T06:51:35;12.30;99.90
15044;DHT22;7619;48.562;8.910;2022-10-26T06:54:07;12.30;99.90
15044;DHT22;7619;48.562;8.910;2022-10-26T06:56:36;12.40;99.90
15044;DHT22;7619;48.562;8.910;2022-10-26T06:59:12;12.40;99.90
15044;DHT22;7619;48.562;8.910;2022-10-26T07:01:39;12.50;99.90
15044;DHT22;7619;48.562;8.910;2022-10-26T07:04:07;12.50;99.90
15044;DHT22;7619;48.562;8.910;2022-10-26T07:06:36;12.50;99.90
15044;DHT22;7619;48.562;8.910;2022-10-26T07:09:05;12.50;99.90
15044;DHT22;7619;48.562;8.910;2022-10-26T07:11:34;12.60;99.90
15044;DHT22;7619;48.562;8.910;2022-10-26T07:14:03;12.60;99.90
15044;DHT22;7619;48.562;8.910;2022-10-26T07:16:32;12.80;99.90
15044;DHT22;7619;48.562;8.910;2022-10-26T07:19:00;12.90;99.90
15044;DHT22;7619;48.562;8.910;2022-10-26T07:21:29;13.10;99.90
15044;DHT22;7619;48.562;8.910;2022-10-26T07:23:58;13.30;99.90
15044;DHT22;7619;48.562;8.910;2022-10-26T07:26:27;13.50;99.90
15044;DHT22;7619;48.562;8.910;2022-10-26T07:28:55;13.70;99.90
15044;DHT22;7619;48.562;8.910;2022-10-26T07:31:24;13.80;99.90
15044;DHT22;7619;48.562;8.910;2022-10-26T07:33:54;14.00;99.90
15044;DHT22;7619;48.562;8.910;2022-10-26T07:39:01;14.10;99.90
15044;DHT22;7619;48.562;8.910;2022-10-26T07:41:30;14.20;99.90
15044;DHT22;7619;48.562;8.910;2022-10-26T07:43:59;14.30;99.90
15044;DHT22;7619;48.562;8.910;2022-10-26T07:46:28;14.40;99.90
15044;DHT22;7619;48.562;8.910;2022-10-26T07:48:57;14.50;99.90
15044;DHT22;7619;48.562;8.910;2022-10-26T07:51:25;14.60;99.90
15044;DHT22;7619;48.562;8.910;2022-10-26T07:53:54;14.70;99.90
15044;DHT22;7619;48.562;8.910;2022-10-26T07:56:23;14.70;99.90
15044;DHT22;7619;48.562;8.910;2022-10-26T07:58:53;14.80;99.90
15044;DHT22;7619;48.562;8.910;2022-10-26T08:01:22;14.90;99.90
15044;DHT22;7619;48.562;8.910;2022-10-26T08:03:52;15.00;99.90
15044;DHT22;7619;48.562;8.910;2022-10-26T08:06:22;15.10;99.90
15044;DHT22;7619;48.562;8.910;2022-10-26T08:08:51;15.20;99.90
15044;DHT22;7619;48.562;8.910;2022-10-26T08:13:56;15.20;99.90
15044;DHT22;7619;48.562;8.910;2022-10-26T08:16:25;15.20;99.90
15044;DHT22;7619;48.562;8.910;2022-10-26T08:18:54;15.20;99.90
15044;DHT22;7619;48.562;8.910;2022-10-26T08:21:23;15.30;99.90
15044;DHT22;7619;48.562;8.910;2022-10-26T08:23:51;15.30;99.90
15044;DHT22;7619;48.562;8.910;2022-10-26T08:26:21;15.50;99.90
15044;DHT22;7619;48.562;8.910;2022-10-26T08:28:50;15.60;99.90
15044;DHT22;7619;48.562;8.910;2022-10-26T08:31:19;15.60;99.90
15044;DHT22;7619;48.562;8.910;2022-10-26T08:33:48;15.60;99.90
15044;DHT22;7619;48.562;8.910;2022-10-26T08:38:53;15.90;99.90
15044;DHT22;7619;48.562;8.910;2022-10-26T08:44:01;16.00;99.90
15044;DHT22;7619;48.562;8.910;2022-10-26T08:46:33;16.30;99.90
15044;DHT22;7619;48.562;8.910;2022-10-26T08:49:07;16.40;99.90
15044;DHT22;7619;48.562;8.910;2022-10-26T08:54:15;16.60;99.90
15044;DHT22;7619;48.562;8.910;2022-10-26T08:56:47;16.50;99.90
15044;DHT22;7619;48.562;8.910;2022-10-26T08:59:22;16.40;99.90
15044;DHT22;7619;48.562;8.910;2022-10-26T09:01:51;16.20;99.90
15044;DHT22;7619;48.562;8.910;2022-10-26T09:04:25;16.10;99.90
15044;DHT22;7619;48.562;8.910;2022-10-26T09:06:55;16.20;99.90
15044;DHT22;7619;48.562;8.910;2022-10-26T09:09:27;16.20;99.90
15044;DHT22;7619;48.562;8.910;2022-10-26T09:12:01;16.20;99.90
15044;DHT22;7619;48.562;8.910;2022-10-26T09:14:37;16.20;99.90
15044;DHT22;7619;48.562;8.910;2022-10-26T09:17:11;16.20;99.90
15044;DHT22;7619;48.562;8.910;2022-10-26T09:19:58;16.30;99.90
15044;DHT22;7619;48.562;8.910;2022-10-26T09:22:30;16.30;99.90
15044;DHT22;7619;48.562;8.910;2022-10-26T09:25:02;16.50;99.90
15044;DHT22;7619;48.562;8.910;2022-10-26T09:30:14;16.60;99.90
15044;DHT22;7619;48.562;8.910;2022-10-26T09:32:59;16.70;99.90
15044;DHT22;7619;48.562;8.910;2022-10-26T09:38:24;16.80;99.90
15044;DHT22;7619;48.562;8.910;2022-10-26T09:40:55;17.10;99.90
15044;DHT22;7619;48.562;8.910;2022-10-26T09:43:28;17.30;99.90
15044;DHT22;7619;48.562;8.910;2022-10-26T09:45:58;17.50;99.90
15044;DHT22;7619;48.562;8.910;2022-10-26T09:48:32;17.90;99.90
15044;DHT22;7619;48.562;8.910;2022-10-26T09:51:01;18.40;99.90
15044;DHT22;7619;48.562;8.910;2022-10-26T09:53:30;18.80;99.90
15044;DHT22;7619;48.562;8.910;2022-10-26T09:56:03;19.20;99.90
15044;DHT22;7619;48.562;8.910;2022-10-26T10:01:22;19.90;1.00
15044;DHT22;7619;48.562;8.910;2022-10-26T10:04:18;20.60;1.00
15044;DHT22;7619;48.562;8.910;2022-10-26T10:06:48;21.00;99.90
15044;DHT22;7619;48.562;8.910;2022-10-26T10:09:19;21.30;99.90
15044;DHT22;7619;48.562;8.910;2022-10-26T10:11:49;21.30;99.90
15044;DHT22;7619;48.562;8.910;2022-10-26T10:14:23;21.10;1.00
15044;DHT22;7619;48.562;8.910;2022-10-26T10:16:58;21.20;1.00
15044;DHT22;7619;48.562;8.910;2022-10-26T10:19:29;21.00;29.20
15044;DHT22;7619;48.562;8.910;2022-10-26T10:21:59;20.80;1.00
15044;DHT22;7619;48.562;8.910;2022-10-26T10:24:29;20.30;1.00
15044;DHT22;7619;48.562;8.910;2022-10-26T10:27:01;20.00;99.90
15044;DHT22;7619;48.562;8.910;2022-10-26T10:29:32;19.80;1.00
15044;DHT22;7619;48.562;8.910;2022-10-26T10:32:03;19.50;99.90
15044;DHT22;7619;48.562;8.910;2022-10-26T10:34:32;19.30;99.90
15044;DHT22;7619;48.562;8.910;2022-10-26T10:37:03;19.30;99.90
15044;DHT22;7619;48.562;8.910;2022-10-26T10:39:39;19.40;99.90
15044;DHT22;7619;48.562;8.910;2022-10-26T10:42:17;19.60;99.90
15044;DHT22;7619;48.562;8.910;2022-10-26T10:44:50;20.10;1.00
15044;DHT22;7619;48.562;8.910;2022-10-26T10:47:22;20.70;99.90
15044;DHT22;7619;48.562;8.910;2022-10-26T10:49:55;21.30;1.00
15044;DHT22;7619;48.562;8.910;2022-10-26T10:52:29;21.50;99.90
15044;DHT22;7619;48.562;8.910;2022-10-26T10:55:16;21.30;1.00
15044;DHT22;7619;48.562;8.910;2022-10-26T10:58:02;21.00;1.00
15044;DHT22;7619;48.562;8.910;2022-10-26T11:03:31;21.00;1.00
15044;DHT22;7619;48.562;8.910;2022-10-26T11:06:07;20.80;1.00
15044;DHT22;7619;48.562;8.910;2022-10-26T11:08:39;20.80;1.00
15044;DHT22;7619;48.562;8.910;2022-10-26T11:11:12;20.80;1.00
15044;DHT22;7619;48.562;8.910;2022-10-26T11:16:26;20.60;99.90
15044;DHT22;7619;48.562;8.910;2022-10-26T11:18:58;20.70;99.90
15044;DHT22;7619;48.562;8.910;2022-10-26T11:21:30;20.80;99.90
15044;DHT22;7619;48.562;8.910;2022-10-26T11:26:46;20.80;99.90
15044;DHT22;7619;48.562;8.910;2022-10-26T11:29:24;20.70;99.90
15044;DHT22;7619;48.562;8.910;2022-10-26T11:31:57;20.80;99.90
15044;DHT22;7619;48.562;8.910;2022-10-26T11:37:12;21.20;99.90
15044;DHT22;7619;48.562;8.910;2022-10-26T11:39:45;20.80;99.90
15044;DHT22;7619;48.562;8.910;2022-10-26T11:45:00;20.60;50.40
15044;DHT22;7619;48.562;8.910;2022-10-26T11:47:33;20.70;26.40
15044;DHT22;7619;48.562;8.910;2022-10-26T11:50:10;20.90;30.80
15044;DHT22;7619;48.562;8.910;2022-10-26T11:52:40;21.00;66.70
15044;DHT22;7619;48.562;8.910;2022-10-26T11:55:11;21.20;32.10
15044;DHT22;7619;48.562;8.910;2022-10-26T12:00:21;21.90;99.90
15044;DHT22;7619;48.562;8.910;2022-10-26T12:02:54;21.90;99.90
15044;DHT22;7619;48.562;8.910;2022-10-26T12:05:26;21.80;82.50
15044;DHT22;7619;48.562;8.910;2022-10-26T12:07:56;21.90;1.00
15044;DHT22;7619;48.562;8.910;2022-10-26T12:13:12;21.50;59.80
15044;DHT22;7619;48.562;8.910;2022-10-26T12:15:43;21.30;6.50
15044;DHT22;7619;48.562;8.910;2022-10-26T12:18:15;21.60;1.00
15044;DHT22;7619;48.562;8.910;2022-10-26T12:20:59;21.90;27.10
15044;DHT22;7619;48.562;8.910;2022-10-26T12:23:34;22.00;18.60
15044;DHT22;7619;48.562;8.910;2022-10-26T12:29:43;21.60;6.30
15044;DHT22;7619;48.562;8.910;2022-10-26T12:32:49;21.40;1.00
15044;DHT22;7619;48.562;8.910;2022-10-26T12:35:39;21.40;1.00
15044;DHT22;7619;48.562;8.910;2022-10-26T12:41:20;22.20;13.90
15044;DHT22;7619;48.562;8.910;2022-10-26T12:43:51;22.20;1.00
15044;DHT22;7619;48.562;8.910;2022-10-26T12:52:53;22.40;21.30
15044;DHT22;7619;48.562;8.910;2022-10-26T12:56:02;22.30;1.00
15044;DHT22;7619;48.562;8.910;2022-10-26T13:05:27;22.00;1.00
15044;DHT22;7619;48.562;8.910;2022-10-26T13:10:43;21.60;1.00
15044;DHT22;7619;48.562;8.910;2022-10-26T13:15:59;21.90;1.00
15044;DHT22;7619;48.562;8.910;2022-10-26T13:21:09;21.80;1.00
15044;DHT22;7619;48.562;8.910;2022-10-26T13:23:41;21.80;1.00
15044;DHT22;7619;48.562;8.910;2022-10-26T13:26:12;21.90;1.00
15044;DHT22;7619;48.562;8.910;2022-10-26T13:28:48;21.80;12.00
15044;DHT22;7619;48.562;8.910;2022-10-26T13:34:13;21.80;1.00
15044;DHT22;7619;48.562;8.910;2022-10-26T13:36:45;21.90;1.00
15044;DHT22;7619;48.562;8.910;2022-10-26T13:39:16;21.90;17.40
15044;DHT22;7619;48.562;8.910;2022-10-26T13:44:28;21.90;52.90
15044;DHT22;7619;48.562;8.910;2022-10-26T13:47:01;21.90;26.90
15044;DHT22;7619;48.562;8.910;2022-10-26T13:49:34;21.80;11.00
15044;DHT22;7619;48.562;8.910;2022-10-26T13:52:04;21.60;1.00
15044;DHT22;7619;48.562;8.910;2022-10-26T13:54:38;21.50;1.00
15044;DHT22;7619;48.562;8.910;2022-10-26T13:57:15;21.20;1.00
15044;DHT22;7619;48.562;8.910;2022-10-26T13:59:45;21.20;1.00
15044;DHT22;7619;48.562;8.910;2022-10-26T14:05:08;21.50;1.00
15044;DHT22;7619;48.562;8.910;2022-10-26T14:10:26;21.80;1.00
15044;DHT22;7619;48.562;8.910;2022-10-26T14:12:55;21.80;2.00
15044;DHT22;7619;48.562;8.910;2022-10-26T14:18:04;21.80;11.80
15044;DHT22;7619;48.562;8.910;2022-10-26T14:20:33;21.80;1.00
15044;DHT22;7619;48.562;8.910;2022-10-26T14:23:01;21.80;1.00
15044;DHT22;7619;48.562;8.910;2022-10-26T14:25:30;21.60;1.00
15044;DHT22;7619;48.562;8.910;2022-10-26T14:27:59;21.60;1.00
15044;DHT22;7619;48.562;8.910;2022-10-26T14:39:40;21.20;99.90
15044;DHT22;7619;48.562;8.910;2022-10-26T14:44:48;21.10;1.00
15044;DHT22;7619;48.562;8.910;2022-10-26T14:47:20;21.20;1.00
15044;DHT22;7619;48.562;8.910;2022-10-26T14:49:49;21.30;1.00
15044;DHT22;7619;48.562;8.910;2022-10-26T14:54:59;21.70;1.00
15044;DHT22;7619;48.562;8.910;2022-10-26T14:57:34;21.70;1.00
15044;DHT22;7619;48.562;8.910;2022-10-26T15:00:12;21.80;1.00
15044;DHT22;7619;48.562;8.910;2022-10-26T15:02:43;21.80;1.00
15044;DHT22;7619;48.562;8.910;2022-10-26T15:05:24;21.90;1.00
15044;DHT22;7619;48.562;8.910;2022-10-26T15:07:51;21.80;1.00
15044;DHT22;7619;48.562;8.910;2022-10-26T15:10:47;21.60;1.00
15044;DHT22;7619;48.562;8.910;2022-10-26T15:13:22;21.40;1.00
15044;DHT22;7619;48.562;8.910;2022-10-26T15:15:52;21.10;1.00
15044;DHT22;7619;48.562;8.910;2022-10-26T15:20:59;20.70;1.00
15044;DHT22;7619;48.562;8.910;2022-10-26T15:26:04;20.40;1.00
15044;DHT22;7619;48.562;8.910;2022-10-26T15:28:39;20.20;1.00
15044;DHT22;7619;48.562;8.910;2022-10-26T15:31:29;20.10;1.00
15044;DHT22;7619;48.562;8.910;2022-10-26T15:34:12;20.00;1.00
15044;DHT22;7619;48.562;8.910;2022-10-26T15:39:22;19.80;1.00
15044;DHT22;7619;48.562;8.910;2022-10-26T15:41:52;19.70;1.00
15044;DHT22;7619;48.562;8.910;2022-10-26T15:44:22;19.40;1.00
15044;DHT22;7619;48.562;8.910;2022-10-26T15:46:51;19.20;1.00
15044;DHT22;7619;48.562;8.910;2022-10-26T15:49:20;19.00;1.00
15044;DHT22;7619;48.562;8.910;2022-10-26T15:51:49;19.00;1.00
15044;DHT22;7619;48.562;8.910;2022-10-26T15:54:18;19.00;44.80
15044;DHT22;7619;48.562;8.910;2022-10-26T15:59:24;18.50;99.90
15044;DHT22;7619;48.562;8.910;2022-10-26T16:01:53;18.30;1.00
15044;DHT22;7619;48.562;8.910;2022-10-26T16:04:22;18.10;79.90
15044;DHT22;7619;48.562;8.910;2022-10-26T16:06:51;18.00;1.00
15044;DHT22;7619;48.562;8.910;2022-10-26T16:09:19;17.80;99.90
15044;DHT22;7619;48.562;8.910;2022-10-26T16:11:48;17.60;99.90
15044;DHT22;7619;48.562;8.910;2022-10-26T16:14:17;17.40;99.90
15044;DHT22;7619;48.562;8.910;2022-10-26T16:19:23;17.30;1.00
15044;DHT22;7619;48.562;8.910;2022-10-26T16:21:52;17.20;1.00
15044;DHT22;7619;48.562;8.910;2022-10-26T16:24:21;17.10;1.00
15044;DHT22;7619;48.562;8.910;2022-10-26T16:26:50;17.10;46.40
15044;DHT22;7619;48.562;8.910;2022-10-26T16:29:20;17.00;96.90
15044;DHT22;7619;48.562;8.910;2022-10-26T16:34:29;16.70;1.00
15044;DHT22;7619;48.562;8.910;2022-10-26T16:36:58;16.60;1.00
15044;DHT22;7619;48.562;8.910;2022-10-26T16:39:27;16.60;99.90
15044;DHT22;7619;48.562;8.910;2022-10-26T16:41:55;16.50;99.90
15044;DHT22;7619;48.562;8.910;2022-10-26T16:44:24;16.40;87.80
15044;DHT22;7619;48.562;8.910;2022-10-26T16:46:53;16.40;99.90
15044;DHT22;7619;48.562;8.910;2022-10-26T16:49:22;16.30;1.00
15044;DHT22;7619;48.562;8.910;2022-10-26T16:51:51;16.30;99.90
15044;DHT22;7619;48.562;8.910;2022-10-26T16:54:19;16.30;99.90
15044;DHT22;7619;48.562;8.910;2022-10-26T16:56:50;16.30;99.90
15044;DHT22;7619;48.562;8.910;2022-10-26T16:59:18;16.10;99.90
15044;DHT22;7619;48.562;8.910;2022-10-26T17:01:47;16.00;99.90
15044;DHT22;7619;48.562;8.910;2022-10-26T17:07:02;15.90;99.90
15044;DHT22;7619;48.562;8.910;2022-10-26T17:09:31;15.80;99.90
15044;DHT22;7619;48.562;8.910;2022-10-26T17:12:00;15.60;99.90
15044;DHT22;7619;48.562;8.910;2022-10-26T17:14:28;15.50;99.90
15044;DHT22;7619;48.562;8.910;2022-10-26T17:16:58;15.30;99.90
15044;DHT22;7619;48.562;8.910;2022-10-26T17:19:27;15.20;99.90
15044;DHT22;7619;48.562;8.910;2022-10-26T17:21:56;15.10;99.90
15044;DHT22;7619;48.562;8.910;2022-10-26T17:24:25;15.10;99.90
15044;DHT22;7619;48.562;8.910;2022-10-26T17:26:54;15.00;99.90
15044;DHT22;7619;48.562;8.910;2022-10-26T17:29:23;14.90;99.90
15044;DHT22;7619;48.562;8.910;2022-10-26T17:31:52;15.00;99.90
15044;DHT22;7619;48.562;8.910;2022-10-26T17:34:21;14.80;99.90
15044;DHT22;7619;48.562;8.910;2022-10-26T17:36:50;14.60;99.90
15044;DHT22;7619;48.562;8.910;2022-10-26T17:39:19;14.50;99.90
15044;DHT22;7619;48.562;8.910;2022-10-26T17:41:48;14.40;99.90
15044;DHT22;7619;48.562;8.910;2022-10-26T17:44:18;14.30;99.90
15044;DHT22;7619;48.562;8.910;2022-10-26T17:46:47;14.20;99.90
15044;DHT22;7619;48.562;8.910;2022-10-26T17:49:17;14.20;99.90
15044;DHT22;7619;48.562;8.910;2022-10-26T17:51:47;11.80;99.90
15044;DHT22;7619;48.562;8.910;2022-10-26T17:56:52;14.10;99.90
15044;DHT22;7619;48.562;8.910;2022-10-26T17:59:21;14.10;99.90
15044;DHT22;7619;48.562;8.910;2022-10-26T18:01:50;13.90;99.90
15044;DHT22;7619;48.562;8.910;2022-10-26T18:07:02;13.80;99.90
15044;DHT22;7619;48.562;8.910;2022-10-26T18:12:08;13.70;99.90
15044;DHT22;7619;48.562;8.910;2022-10-26T18:19:52;13.60;99.90
15044;DHT22;7619;48.562;8.910;2022-10-26T18:22:21;13.50;99.90
15044;DHT22;7619;48.562;8.910;2022-10-26T18:24:50;13.40;99.90
15044;DHT22;7619;48.562;8.910;2022-10-26T18:27:18;13.40;99.90
15044;DHT22;7619;48.562;8.910;2022-10-26T18:29:47;13.30;99.90
15044;DHT22;7619;48.562;8.910;2022-10-26T18:32:16;13.30;99.90
15044;DHT22;7619;48.562;8.910;2022-10-26T18:34:45;13.30;99.90
15044;DHT22;7619;48.562;8.910;2022-10-26T18:39:52;13.20;99.90
15044;DHT22;7619;48.562;8.910;2022-10-26T18:42:21;13.20;99.90
15044;DHT22;7619;48.562;8.910;2022-10-26T18:44:50;13.20;99.90